sensor_id;sensor_type;location;lat;lon;timestamp;temperature;humidity
23385;DHT22;11865;45.394;10.978;2022-12-01T00:01:15;7.00;99.90
23385;DHT22;11865;45.394;10.978;2022-12-01T00:03:42;7.00;99.90
23385;DHT22;11865;45.394;10.978;2022-12-01T00:06:12;6.90;99.90
23385;DHT22;11865;45.394;10.978;2022-12-01T00:08:43;7.10;99.90
23385;DHT22;11865;45.394;10.978;2022-12-01T00:11:32;7.10;99.90
23385;DHT22;11865;45.394;10.978;2022-12-01T00:14:00;6.90;99.90
23385;DHT22;11865;45.394;10.978;2022-12-01T00:16:27;6.80;99.90
23385;DHT22;11865;45.394;10.978;2022-12-01T00:18:55;6.80;99.90
23385;DHT22;11865;45.394;10.978;2022-12-01T00:21:24;6.90;99.90
23385;DHT22;11865;45.394;10.978;2022-12-01T00:23:54;7.10;99.90
23385;DHT22;11865;45.394;10.978;2022-12-01T00:26:23;7.00;99.90
23385;DHT22;11865;45.394;10.978;2022-12-01T00:28:52;6.90;99.90
23385;DHT22;11865;45.394;10.978;2022-12-01T00:31:20;6.90;99.90
23385;DHT22;11865;45.394;10.978;2022-12-01T00:33:49;6.80;99.90
23385;DHT22;11865;45.394;10.978;2022-12-01T00:36:16;6.80;99.90
23385;DHT22;11865;45.394;10.978;2022-12-01T00:38:44;6.60;99.90
23385;DHT22;11865;45.394;10.978;2022-12-01T00:41:11;6.50;99.90
23385;DHT22;11865;45.394;10.978;2022-12-01T00:43:39;6.60;99.90
23385;DHT22;11865;45.394;10.978;2022-12-01T00:46:06;6.70;99.90
23385;DHT22;11865;45.394;10.978;2022-12-01T00:48:34;6.70;99.90
23385;DHT22;11865;45.394;10.978;2022-12-01T00:51:02;6.70;99.90
23385;DHT22;11865;45.394;10.978;2022-12-01T00:53:29;6.80;99.90
23385;DHT22;11865;45.394;10.978;2022-12-01T00:55:57;6.80;99.90
23385;DHT22;11865;45.394;10.978;2022-12-01T00:58:24;6.70;99.90
23385;DHT22;11865;45.394;10.978;2022-12-01T01:00:59;6.60;99.90
23385;DHT22;11865;45.394;10.978;2022-12-01T01:03:28;6.60;99.90
23385;DHT22;11865;45.394;10.978;2022-12-01T01:05:59;6.60;99.90
23385;DHT22;11865;45.394;10.978;2022-12-01T01:08:29;6.70;99.90
23385;DHT22;11865;45.394;10.978;2022-12-01T01:10:58;6.80;99.90
23385;DHT22;11865;45.394;10.978;2022-12-01T01:13:26;6.80;99.90
23385;DHT22;11865;45.394;10.978;2022-12-01T01:16:29;6.80;99.90
23385;DHT22;11865;45.394;10.978;2022-12-01T01:18:57;6.90;99.90
23385;DHT22;11865;45.394;10.978;2022-12-01T01:21:26;6.90;99.90
23385;DHT22;11865;45.394;10.978;2022-12-01T01:23:55;6.80;99.90
23385;DHT22;11865;45.394;10.978;2022-12-01T01:26:23;6.90;99.90
23385;DHT22;11865;45.394;10.978;2022-12-01T01:28:52;6.80;99.90
23385;DHT22;11865;45.394;10.978;2022-12-01T01:31:21;6.80;99.90
23385;DHT22;11865;45.394;10.978;2022-12-01T01:33:49;6.60;99.90
23385;DHT22;11865;45.394;10.978;2022-12-01T01:36:17;6.60;99.90
23385;DHT22;11865;45.394;10.978;2022-12-01T01:38:46;6.70;99.90
23385;DHT22;11865;45.394;10.978;2022-12-01T01:41:13;6.70;99.90
23385;DHT22;11865;45.394;10.978;2022-12-01T01:46:18;6.70;99.90
23385;DHT22;11865;45.394;10.978;2022-12-01T01:49:10;6.70;99.90
23385;DHT22;11865;45.394;10.978;2022-12-01T01:51:44;6.70;99.90
23385;DHT22;11865;45.394;10.978;2022-12-01T01:54:24;6.90;99.90
23385;DHT22;11865;45.394;10.978;2022-12-01T01:56:53;6.90;99.90
23385;DHT22;11865;45.394;10.978;2022-12-01T01:59:29;7.00;99.90
23385;DHT22;11865;45.394;10.978;2022-12-01T02:02:05;7.00;99.90
23385;DHT22;11865;45.394;10.978;2022-12-01T02:04:43;6.80;99.90
23385;DHT22;11865;45.394;10.978;2022-12-01T02:07:14;6.80;99.90
23385;DHT22;11865;45.394;10.978;2022-12-01T02:09:42;6.80;99.90
23385;DHT22;11865;45.394;10.978;2022-12-01T02:26:06;6.70;99.90
23385;DHT22;11865;45.394;10.978;2022-12-01T02:31:20;6.70;99.90
23385;DHT22;11865;45.394;10.978;2022-12-01T02:34:05;6.70;99.90
23385;DHT22;11865;45.394;10.978;2022-12-01T02:36:45;6.60;99.90
23385;DHT22;11865;45.394;10.978;2022-12-01T02:42:32;6.70;99.90
23385;DHT22;11865;45.394;10.978;2022-12-01T02:45:32;6.70;99.90
23385;DHT22;11865;45.394;10.978;2022-12-01T02:48:01;6.60;99.90
23385;DHT22;11865;45.394;10.978;2022-12-01T02:50:33;6.60;99.90
23385;DHT22;11865;45.394;10.978;2022-12-01T02:53:02;6.70;99.90
23385;DHT22;11865;45.394;10.978;2022-12-01T02:55:31;6.70;99.90
23385;DHT22;11865;45.394;10.978;2022-12-01T02:57:59;6.50;99.90
23385;DHT22;11865;45.394;10.978;2022-12-01T03:00:28;6.70;99.90
23385;DHT22;11865;45.394;10.978;2022-12-01T03:03:21;6.70;99.90
23385;DHT22;11865;45.394;10.978;2022-12-01T03:06:22;7.00;99.90
23385;DHT22;11865;45.394;10.978;2022-12-01T03:17:16;7.60;99.90
23385;DHT22;11865;45.394;10.978;2022-12-01T03:19:47;7.70;99.90
23385;DHT22;11865;45.394;10.978;2022-12-01T03:22:35;7.70;99.90
23385;DHT22;11865;45.394;10.978;2022-12-01T03:25:05;7.70;99.90
23385;DHT22;11865;45.394;10.978;2022-12-01T03:27:36;7.40;99.90
23385;DHT22;11865;45.394;10.978;2022-12-01T03:30:17;7.40;99.90
23385;DHT22;11865;45.394;10.978;2022-12-01T03:32:53;7.60;99.90
23385;DHT22;11865;45.394;10.978;2022-12-01T03:35:32;7.60;99.90
23385;DHT22;11865;45.394;10.978;2022-12-01T03:38:10;7.30;99.90
23385;DHT22;11865;45.394;10.978;2022-12-01T03:40:41;7.00;99.90
23385;DHT22;11865;45.394;10.978;2022-12-01T03:43:14;7.10;99.90
23385;DHT22;11865;45.394;10.978;2022-12-01T03:48:26;7.20;99.90
23385;DHT22;11865;45.394;10.978;2022-12-01T03:53:52;7.20;99.90
23385;DHT22;11865;45.394;10.978;2022-12-01T03:56:23;7.40;99.90
23385;DHT22;11865;45.394;10.978;2022-12-01T03:58:54;7.40;99.90
23385;DHT22;11865;45.394;10.978;2022-12-01T04:01:23;7.30;99.90
23385;DHT22;11865;45.394;10.978;2022-12-01T04:03:52;7.20;99.90
23385;DHT22;11865;45.394;10.978;2022-12-01T04:06:20;7.00;99.90
23385;DHT22;11865;45.394;10.978;2022-12-01T04:08:47;6.90;99.90
23385;DHT22;11865;45.394;10.978;2022-12-01T04:11:15;7.10;99.90
23385;DHT22;11865;45.394;10.978;2022-12-01T04:14:01;7.30;99.90
23385;DHT22;11865;45.394;10.978;2022-12-01T04:16:28;7.40;99.90
23385;DHT22;11865;45.394;10.978;2022-12-01T04:18:56;7.30;99.90
23385;DHT22;11865;45.394;10.978;2022-12-01T04:21:23;7.20;99.90
23385;DHT22;11865;45.394;10.978;2022-12-01T04:23:51;7.00;99.90
23385;DHT22;11865;45.394;10.978;2022-12-01T04:26:33;6.90;99.90
23385;DHT22;11865;45.394;10.978;2022-12-01T04:29:03;6.80;99.90
23385;DHT22;11865;45.394;10.978;2022-12-01T04:31:31;6.70;99.90
23385;DHT22;11865;45.394;10.978;2022-12-01T04:33:58;6.80;99.90
23385;DHT22;11865;45.394;10.978;2022-12-01T04:36:29;6.90;99.90
23385;DHT22;11865;45.394;10.978;2022-12-01T04:38:57;7.10;99.90
23385;DHT22;11865;45.394;10.978;2022-12-01T04:41:24;7.20;99.90
23385;DHT22;11865;45.394;10.978;2022-12-01T04:43:53;7.20;99.90
23385;DHT22;11865;45.394;10.978;2022-12-01T04:46:21;7.20;99.90
23385;DHT22;11865;45.394;10.978;2022-12-01T04:48:49;7.20;99.90
23385;DHT22;11865;45.394;10.978;2022-12-01T04:51:17;7.20;99.90
23385;DHT22;11865;45.394;10.978;2022-12-01T04:53:44;7.20;99.90
23385;DHT22;11865;45.394;10.978;2022-12-01T04:56:12;7.30;99.90
23385;DHT22;11865;45.394;10.978;2022-12-01T04:58:39;7.30;99.90
23385;DHT22;11865;45.394;10.978;2022-12-01T05:01:10;7.30;99.90
23385;DHT22;11865;45.394;10.978;2022-12-01T05:03:39;7.30;99.90
23385;DHT22;11865;45.394;10.978;2022-12-01T05:06:10;7.30;99.90
23385;DHT22;11865;45.394;10.978;2022-12-01T05:08:38;7.40;99.90
23385;DHT22;11865;45.394;10.978;2022-12-01T05:11:07;7.40;99.90
23385;DHT22;11865;45.394;10.978;2022-12-01T05:13:42;7.40;99.90
23385;DHT22;11865;45.394;10.978;2022-12-01T05:18:49;7.50;99.90
23385;DHT22;11865;45.394;10.978;2022-12-01T05:21:17;7.60;99.90
23385;DHT22;11865;45.394;10.978;2022-12-01T05:23:44;7.60;99.90
23385;DHT22;11865;45.394;10.978;2022-12-01T05:26:12;7.70;99.90
23385;DHT22;11865;45.394;10.978;2022-12-01T05:28:39;7.60;99.90
23385;DHT22;11865;45.394;10.978;2022-12-01T05:31:07;7.60;99.90
23385;DHT22;11865;45.394;10.978;2022-12-01T05:33:34;7.40;99.90
23385;DHT22;11865;45.394;10.978;2022-12-01T05:36:02;7.00;99.90
23385;DHT22;11865;45.394;10.978;2022-12-01T05:38:29;7.10;99.90
23385;DHT22;11865;45.394;10.978;2022-12-01T05:40:56;7.20;99.90
23385;DHT22;11865;45.394;10.978;2022-12-01T05:43:24;7.30;99.90
23385;DHT22;11865;45.394;10.978;2022-12-01T05:45:56;7.50;99.90
23385;DHT22;11865;45.394;10.978;2022-12-01T05:48:24;7.50;99.90
23385;DHT22;11865;45.394;10.978;2022-12-01T05:50:52;7.50;99.90
23385;DHT22;11865;45.394;10.978;2022-12-01T05:53:19;7.60;99.90
23385;DHT22;11865;45.394;10.978;2022-12-01T05:55:52;7.70;99.90
23385;DHT22;11865;45.394;10.978;2022-12-01T05:58:21;7.80;99.90
23385;DHT22;11865;45.394;10.978;2022-12-01T06:00:48;7.80;99.90
23385;DHT22;11865;45.394;10.978;2022-12-01T06:03:16;7.80;99.90
23385;DHT22;11865;45.394;10.978;2022-12-01T06:05:43;7.80;99.90
23385;DHT22;11865;45.394;10.978;2022-12-01T06:08:10;7.80;99.90
23385;DHT22;11865;45.394;10.978;2022-12-01T06:10:38;7.80;99.90
23385;DHT22;11865;45.394;10.978;2022-12-01T06:13:06;7.80;99.90
23385;DHT22;11865;45.394;10.978;2022-12-01T06:15:33;7.80;99.90
23385;DHT22;11865;45.394;10.978;2022-12-01T06:18:00;7.80;99.90
23385;DHT22;11865;45.394;10.978;2022-12-01T06:20:28;7.80;99.90
23385;DHT22;11865;45.394;10.978;2022-12-01T06:22:55;7.80;99.90
23385;DHT22;11865;45.394;10.978;2022-12-01T06:25:23;7.80;99.90
23385;DHT22;11865;45.394;10.978;2022-12-01T06:27:57;7.90;99.90
23385;DHT22;11865;45.394;10.978;2022-12-01T06:30:24;7.90;99.90
23385;DHT22;11865;45.394;10.978;2022-12-01T06:32:52;7.90;99.90
23385;DHT22;11865;45.394;10.978;2022-12-01T06:35:19;7.90;99.90
23385;DHT22;11865;45.394;10.978;2022-12-01T06:37:47;7.80;99.90
23385;DHT22;11865;45.394;10.978;2022-12-01T06:40:14;7.80;99.90
23385;DHT22;11865;45.394;10.978;2022-12-01T06:42:42;7.90;99.90
23385;DHT22;11865;45.394;10.978;2022-12-01T06:45:10;7.90;99.90
23385;DHT22;11865;45.394;10.978;2022-12-01T06:47:38;8.00;99.90
23385;DHT22;11865;45.394;10.978;2022-12-01T06:50:06;8.00;99.90
23385;DHT22;11865;45.394;10.978;2022-12-01T06:52:36;7.90;99.90
23385;DHT22;11865;45.394;10.978;2022-12-01T06:55:05;7.90;99.90
23385;DHT22;11865;45.394;10.978;2022-12-01T06:57:32;8.00;99.90
23385;DHT22;11865;45.394;10.978;2022-12-01T07:00:00;8.10;99.90
23385;DHT22;11865;45.394;10.978;2022-12-01T07:02:28;8.10;99.90
23385;DHT22;11865;45.394;10.978;2022-12-01T07:04:56;8.10;99.90
23385;DHT22;11865;45.394;10.978;2022-12-01T07:07:23;8.10;99.90
23385;DHT22;11865;45.394;10.978;2022-12-01T07:09:51;8.10;99.90
23385;DHT22;11865;45.394;10.978;2022-12-01T07:12:18;8.10;99.90
23385;DHT22;11865;45.394;10.978;2022-12-01T07:14:45;8.20;99.90
23385;DHT22;11865;45.394;10.978;2022-12-01T07:17:13;8.20;99.90
23385;DHT22;11865;45.394;10.978;2022-12-01T07:19:40;8.20;99.90
23385;DHT22;11865;45.394;10.978;2022-12-01T07:22:08;8.20;99.90
23385;DHT22;11865;45.394;10.978;2022-12-01T07:24:35;8.20;99.90
23385;DHT22;11865;45.394;10.978;2022-12-01T07:27:02;8.20;99.90
23385;DHT22;11865;45.394;10.978;2022-12-01T07:29:30;8.30;99.90
23385;DHT22;11865;45.394;10.978;2022-12-01T07:31:57;8.30;99.90
23385;DHT22;11865;45.394;10.978;2022-12-01T07:34:24;8.40;99.90
23385;DHT22;11865;45.394;10.978;2022-12-01T07:36:52;8.50;99.70
23385;DHT22;11865;45.394;10.978;2022-12-01T07:39:19;8.60;99.80
23385;DHT22;11865;45.394;10.978;2022-12-01T07:41:47;8.60;99.90
23385;DHT22;11865;45.394;10.978;2022-12-01T07:44:14;8.60;99.60
23385;DHT22;11865;45.394;10.978;2022-12-01T07:46:41;8.60;99.90
23385;DHT22;11865;45.394;10.978;2022-12-01T07:49:09;8.60;99.90
23385;DHT22;11865;45.394;10.978;2022-12-01T07:51:38;8.80;99.90
23385;DHT22;11865;45.394;10.978;2022-12-01T07:54:06;8.80;99.30
23385;DHT22;11865;45.394;10.978;2022-12-01T07:56:34;9.10;98.60
23385;DHT22;11865;45.394;10.978;2022-12-01T07:59:01;9.10;98.80
23385;DHT22;11865;45.394;10.978;2022-12-01T08:01:28;9.10;98.90
23385;DHT22;11865;45.394;10.978;2022-12-01T08:03:57;9.10;98.90
23385;DHT22;11865;45.394;10.978;2022-12-01T08:06:26;9.20;98.70
23385;DHT22;11865;45.394;10.978;2022-12-01T08:08:54;9.30;98.50
23385;DHT22;11865;45.394;10.978;2022-12-01T08:11:26;9.20;98.10
23385;DHT22;11865;45.394;10.978;2022-12-01T08:13:56;9.30;98.20
23385;DHT22;11865;45.394;10.978;2022-12-01T08:16:24;9.40;98.30
23385;DHT22;11865;45.394;10.978;2022-12-01T08:18:51;9.50;97.80
23385;DHT22;11865;45.394;10.978;2022-12-01T08:21:21;9.70;97.40
23385;DHT22;11865;45.394;10.978;2022-12-01T08:23:53;9.70;97.20
23385;DHT22;11865;45.394;10.978;2022-12-01T08:26:22;9.70;97.20
23385;DHT22;11865;45.394;10.978;2022-12-01T08:28:50;9.80;98.00
23385;DHT22;11865;45.394;10.978;2022-12-01T08:31:27;9.90;97.00
23385;DHT22;11865;45.394;10.978;2022-12-01T08:33:55;10.00;97.60
23385;DHT22;11865;45.394;10.978;2022-12-01T08:36:24;10.00;97.30
23385;DHT22;11865;45.394;10.978;2022-12-01T08:38:53;9.80;97.20
23385;DHT22;11865;45.394;10.978;2022-12-01T08:41:22;10.00;97.20
23385;DHT22;11865;45.394;10.978;2022-12-01T08:43:50;10.10;96.40
23385;DHT22;11865;45.394;10.978;2022-12-01T08:46:34;10.10;97.30
23385;DHT22;11865;45.394;10.978;2022-12-01T08:49:03;10.40;97.50
23385;DHT22;11865;45.394;10.978;2022-12-01T08:51:31;10.70;97.00
23385;DHT22;11865;45.394;10.978;2022-12-01T08:53:59;10.90;97.30
23385;DHT22;11865;45.394;10.978;2022-12-01T08:56:31;11.10;96.40
23385;DHT22;11865;45.394;10.978;2022-12-01T08:58:59;11.10;96.40
23385;DHT22;11865;45.394;10.978;2022-12-01T09:01:27;11.20;95.40
23385;DHT22;11865;45.394;10.978;2022-12-01T09:03:56;11.40;94.80
23385;DHT22;11865;45.394;10.978;2022-12-01T09:06:41;11.30;94.70
23385;DHT22;11865;45.394;10.978;2022-12-01T09:09:15;11.60;93.10
23385;DHT22;11865;45.394;10.978;2022-12-01T09:11:43;11.50;92.10
23385;DHT22;11865;45.394;10.978;2022-12-01T09:14:12;11.50;93.00
23385;DHT22;11865;45.394;10.978;2022-12-01T09:16:41;11.60;92.60
23385;DHT22;11865;45.394;10.978;2022-12-01T09:19:09;11.60;92.50
23385;DHT22;11865;45.394;10.978;2022-12-01T09:21:40;11.60;93.00
23385;DHT22;11865;45.394;10.978;2022-12-01T09:24:10;11.90;92.50
23385;DHT22;11865;45.394;10.978;2022-12-01T09:26:38;11.90;92.50
23385;DHT22;11865;45.394;10.978;2022-12-01T09:29:08;11.70;92.80
23385;DHT22;11865;45.394;10.978;2022-12-01T09:31:36;11.70;92.10
23385;DHT22;11865;45.394;10.978;2022-12-01T09:34:07;11.70;92.30
23385;DHT22;11865;45.394;10.978;2022-12-01T09:36:35;11.80;91.00
23385;DHT22;11865;45.394;10.978;2022-12-01T09:39:05;11.90;91.30
23385;DHT22;11865;45.394;10.978;2022-12-01T09:41:36;11.90;92.70
23385;DHT22;11865;45.394;10.978;2022-12-01T09:47:03;12.10;90.80
23385;DHT22;11865;45.394;10.978;2022-12-01T09:52:14;12.40;91.80
23385;DHT22;11865;45.394;10.978;2022-12-01T09:54:42;12.20;92.90
23385;DHT22;11865;45.394;10.978;2022-12-01T09:57:35;12.20;92.80
23385;DHT22;11865;45.394;10.978;2022-12-01T10:00:19;12.20;91.50
23385;DHT22;11865;45.394;10.978;2022-12-01T10:02:50;12.30;91.80
23385;DHT22;11865;45.394;10.978;2022-12-01T10:05:21;12.20;91.20
23385;DHT22;11865;45.394;10.978;2022-12-01T10:08:02;12.00;89.80
23385;DHT22;11865;45.394;10.978;2022-12-01T10:10:41;11.80;90.30
23385;DHT22;11865;45.394;10.978;2022-12-01T10:13:18;11.90;88.00
23385;DHT22;11865;45.394;10.978;2022-12-01T10:15:54;11.80;89.00
23385;DHT22;11865;45.394;10.978;2022-12-01T10:18:57;11.80;89.30
23385;DHT22;11865;45.394;10.978;2022-12-01T10:21:56;11.80;88.20
23385;DHT22;11865;45.394;10.978;2022-12-01T10:24:52;11.50;90.30
23385;DHT22;11865;45.394;10.978;2022-12-01T10:27:35;11.50;91.40
23385;DHT22;11865;45.394;10.978;2022-12-01T10:30:14;11.60;90.00
23385;DHT22;11865;45.394;10.978;2022-12-01T10:32:56;11.60;91.40
23385;DHT22;11865;45.394;10.978;2022-12-01T10:35:28;11.60;90.50
23385;DHT22;11865;45.394;10.978;2022-12-01T10:38:10;11.50;91.00
23385;DHT22;11865;45.394;10.978;2022-12-01T10:40:40;11.60;90.70
23385;DHT22;11865;45.394;10.978;2022-12-01T10:43:09;11.50;91.00
23385;DHT22;11865;45.394;10.978;2022-12-01T10:45:40;11.50;91.20
23385;DHT22;11865;45.394;10.978;2022-12-01T10:48:16;11.60;91.00
23385;DHT22;11865;45.394;10.978;2022-12-01T10:50:49;11.50;90.70
23385;DHT22;11865;45.394;10.978;2022-12-01T10:53:28;11.60;90.20
23385;DHT22;11865;45.394;10.978;2022-12-01T10:56:10;11.70;89.60
23385;DHT22;11865;45.394;10.978;2022-12-01T10:58:45;11.70;90.90
23385;DHT22;11865;45.394;10.978;2022-12-01T11:03:56;11.70;91.00
23385;DHT22;11865;45.394;10.978;2022-12-01T11:06:25;11.80;91.00
23385;DHT22;11865;45.394;10.978;2022-12-01T11:08:59;11.70;90.90
23385;DHT22;11865;45.394;10.978;2022-12-01T11:11:38;11.70;92.80
23385;DHT22;11865;45.394;10.978;2022-12-01T11:14:17;11.70;91.10
23385;DHT22;11865;45.394;10.978;2022-12-01T11:16:48;11.80;91.80
23385;DHT22;11865;45.394;10.978;2022-12-01T11:19:28;12.00;91.90
23385;DHT22;11865;45.394;10.978;2022-12-01T11:22:20;12.10;91.60
23385;DHT22;11865;45.394;10.978;2022-12-01T11:27:28;12.10;92.00
23385;DHT22;11865;45.394;10.978;2022-12-01T11:30:14;12.10;91.60
23385;DHT22;11865;45.394;10.978;2022-12-01T11:32:52;11.90;92.10
23385;DHT22;11865;45.394;10.978;2022-12-01T11:35:23;12.00;91.50
23385;DHT22;11865;45.394;10.978;2022-12-01T11:37:53;12.10;91.20
23385;DHT22;11865;45.394;10.978;2022-12-01T11:40:47;12.00;92.00
23385;DHT22;11865;45.394;10.978;2022-12-01T11:45:48;12.10;91.30
23385;DHT22;11865;45.394;10.978;2022-12-01T11:48:30;11.80;91.50
23385;DHT22;11865;45.394;10.978;2022-12-01T11:58:46;12.00;90.20
23385;DHT22;11865;45.394;10.978;2022-12-01T12:15:32;12.10;88.60
23385;DHT22;11865;45.394;10.978;2022-12-01T12:20:36;12.20;85.80
23385;DHT22;11865;45.394;10.978;2022-12-01T12:29:05;12.50;89.00
23385;DHT22;11865;45.394;10.978;2022-12-01T12:40:00;12.40;88.00
23385;DHT22;11865;45.394;10.978;2022-12-01T12:42:39;12.40;86.10
23385;DHT22;11865;45.394;10.978;2022-12-01T12:48:22;12.40;86.60
23385;DHT22;11865;45.394;10.978;2022-12-01T12:51:34;12.40;84.30
23385;DHT22;11865;45.394;10.978;2022-12-01T12:54:15;12.30;88.10
23385;DHT22;11865;45.394;10.978;2022-12-01T12:56:48;12.00;89.30
23385;DHT22;11865;45.394;10.978;2022-12-01T12:59:54;12.20;87.20
23385;DHT22;11865;45.394;10.978;2022-12-01T13:11:09;11.90;90.40
23385;DHT22;11865;45.394;10.978;2022-12-01T13:13:38;12.00;87.40
23385;DHT22;11865;45.394;10.978;2022-12-01T13:16:12;12.00;87.60
23385;DHT22;11865;45.394;10.978;2022-12-01T13:18:44;12.10;86.90
23385;DHT22;11865;45.394;10.978;2022-12-01T13:21:19;12.30;86.80
23385;DHT22;11865;45.394;10.978;2022-12-01T13:23:48;12.10;86.70
23385;DHT22;11865;45.394;10.978;2022-12-01T13:26:19;12.20;88.50
23385;DHT22;11865;45.394;10.978;2022-12-01T13:28:50;12.20;86.20
23385;DHT22;11865;45.394;10.978;2022-12-01T13:31:19;12.20;85.80
23385;DHT22;11865;45.394;10.978;2022-12-01T13:34:02;12.10;85.40
23385;DHT22;11865;45.394;10.978;2022-12-01T13:36:31;12.30;86.10
23385;DHT22;11865;45.394;10.978;2022-12-01T13:39:26;12.20;88.00
23385;DHT22;11865;45.394;10.978;2022-12-01T13:44:39;12.10;86.70
23385;DHT22;11865;45.394;10.978;2022-12-01T13:49:43;12.10;86.00
23385;DHT22;11865;45.394;10.978;2022-12-01T13:55:20;12.00;87.20
23385;DHT22;11865;45.394;10.978;2022-12-01T14:00:41;11.80;88.50
23385;DHT22;11865;45.394;10.978;2022-12-01T14:10:54;11.90;87.90
23385;DHT22;11865;45.394;10.978;2022-12-01T14:13:23;11.70;89.40
23385;DHT22;11865;45.394;10.978;2022-12-01T14:15:59;11.70;88.10
23385;DHT22;11865;45.394;10.978;2022-12-01T14:19:05;11.60;89.60
23385;DHT22;11865;45.394;10.978;2022-12-01T14:21:45;11.70;88.70
23385;DHT22;11865;45.394;10.978;2022-12-01T14:24:46;11.50;90.10
23385;DHT22;11865;45.394;10.978;2022-12-01T14:27:08;11.60;90.30
23385;DHT22;11865;45.394;10.978;2022-12-01T14:29:39;11.50;90.90
23385;DHT22;11865;45.394;10.978;2022-12-01T14:34:43;11.60;90.90
23385;DHT22;11865;45.394;10.978;2022-12-01T14:37:16;11.60;91.10
23385;DHT22;11865;45.394;10.978;2022-12-01T14:40:04;11.60;91.50
23385;DHT22;11865;45.394;10.978;2022-12-01T14:45:32;11.40;91.50
23385;DHT22;11865;45.394;10.978;2022-12-01T14:48:03;11.40;91.70
23385;DHT22;11865;45.394;10.978;2022-12-01T14:50:42;11.30;91.80
23385;DHT22;11865;45.394;10.978;2022-12-01T14:55:56;11.20;91.80
23385;DHT22;11865;45.394;10.978;2022-12-01T14:58:30;11.30;91.80
23385;DHT22;11865;45.394;10.978;2022-12-01T15:01:06;11.20;91.70
23385;DHT22;11865;45.394;10.978;2022-12-01T15:03:49;11.20;92.10
23385;DHT22;11865;45.394;10.978;2022-12-01T15:06:21;11.20;92.60
23385;DHT22;11865;45.394;10.978;2022-12-01T15:14:45;11.00;93.30
23385;DHT22;11865;45.394;10.978;2022-12-01T15:17:32;11.00;93.80
23385;DHT22;11865;45.394;10.978;2022-12-01T15:20:00;11.00;93.90
23385;DHT22;11865;45.394;10.978;2022-12-01T15:22:30;11.00;94.40
23385;DHT22;11865;45.394;10.978;2022-12-01T15:25:28;10.70;95.00
23385;DHT22;11865;45.394;10.978;2022-12-01T15:28:15;10.70;95.20
23385;DHT22;11865;45.394;10.978;2022-12-01T15:30:53;10.70;95.20
23385;DHT22;11865;45.394;10.978;2022-12-01T15:33:30;10.70;95.60
23385;DHT22;11865;45.394;10.978;2022-12-01T15:36:04;10.80;95.40
23385;DHT22;11865;45.394;10.978;2022-12-01T15:38:36;10.70;95.90
23385;DHT22;11865;45.394;10.978;2022-12-01T15:41:05;10.50;96.50
23385;DHT22;11865;45.394;10.978;2022-12-01T15:43:58;10.60;96.40
23385;DHT22;11865;45.394;10.978;2022-12-01T15:46:32;10.50;97.00
23385;DHT22;11865;45.394;10.978;2022-12-01T15:49:23;10.50;96.80
23385;DHT22;11865;45.394;10.978;2022-12-01T15:52:06;10.40;96.80
23385;DHT22;11865;45.394;10.978;2022-12-01T15:54:35;10.50;96.80
23385;DHT22;11865;45.394;10.978;2022-12-01T15:57:04;10.40;96.60
23385;DHT22;11865;45.394;10.978;2022-12-01T15:59:38;10.40;96.60
23385;DHT22;11865;45.394;10.978;2022-12-01T16:02:27;10.40;96.50
23385;DHT22;11865;45.394;10.978;2022-12-01T16:05:24;10.40;96.60
23385;DHT22;11865;45.394;10.978;2022-12-01T16:07:53;10.30;96.50
23385;DHT22;11865;45.394;10.978;2022-12-01T16:10:41;10.30;96.30
23385;DHT22;11865;45.394;10.978;2022-12-01T16:13:34;10.20;96.40
23385;DHT22;11865;45.394;10.978;2022-12-01T16:19:22;10.20;96.40
23385;DHT22;11865;45.394;10.978;2022-12-01T16:27:05;10.00;96.80
23385;DHT22;11865;45.394;10.978;2022-12-01T16:30:17;9.90;97.10
23385;DHT22;11865;45.394;10.978;2022-12-01T16:32:42;9.80;97.00
23385;DHT22;11865;45.394;10.978;2022-12-01T16:37:50;9.60;97.60
23385;DHT22;11865;45.394;10.978;2022-12-01T16:40:18;9.40;98.10
23385;DHT22;11865;45.394;10.978;2022-12-01T16:42:45;9.40;98.30
23385;DHT22;11865;45.394;10.978;2022-12-01T16:45:16;9.30;98.60
23385;DHT22;11865;45.394;10.978;2022-12-01T16:47:45;9.20;99.00
23385;DHT22;11865;45.394;10.978;2022-12-01T16:50:18;9.20;98.60
23385;DHT22;11865;45.394;10.978;2022-12-01T16:52:45;9.20;98.90
23385;DHT22;11865;45.394;10.978;2022-12-01T16:55:36;9.10;99.00
23385;DHT22;11865;45.394;10.978;2022-12-01T16:58:04;9.10;98.70
23385;DHT22;11865;45.394;10.978;2022-12-01T17:00:32;9.00;98.80
23385;DHT22;11865;45.394;10.978;2022-12-01T17:03:00;8.90;99.10
23385;DHT22;11865;45.394;10.978;2022-12-01T17:05:27;8.90;99.20
23385;DHT22;11865;45.394;10.978;2022-12-01T17:07:55;8.70;99.70
23385;DHT22;11865;45.394;10.978;2022-12-01T17:10:23;8.70;99.40
23385;DHT22;11865;45.394;10.978;2022-12-01T17:12:51;8.60;99.60
23385;DHT22;11865;45.394;10.978;2022-12-01T17:15:18;8.50;99.70
23385;DHT22;11865;45.394;10.978;2022-12-01T17:17:46;8.40;99.90
23385;DHT22;11865;45.394;10.978;2022-12-01T17:20:14;8.30;99.90
23385;DHT22;11865;45.394;10.978;2022-12-01T17:22:42;8.20;99.90
23385;DHT22;11865;45.394;10.978;2022-12-01T17:25:09;8.10;99.90
23385;DHT22;11865;45.394;10.978;2022-12-01T17:27:38;8.10;99.90
23385;DHT22;11865;45.394;10.978;2022-12-01T17:30:06;7.90;99.90
23385;DHT22;11865;45.394;10.978;2022-12-01T17:32:34;7.80;99.90
23385;DHT22;11865;45.394;10.978;2022-12-01T17:35:02;8.00;99.90
23385;DHT22;11865;45.394;10.978;2022-12-01T17:37:29;7.90;99.90
23385;DHT22;11865;45.394;10.978;2022-12-01T17:39:57;7.90;99.90
23385;DHT22;11865;45.394;10.978;2022-12-01T17:42:24;7.60;99.90
23385;DHT22;11865;45.394;10.978;2022-12-01T17:44:52;7.70;99.90
23385;DHT22;11865;45.394;10.978;2022-12-01T17:47:19;7.60;99.90
23385;DHT22;11865;45.394;10.978;2022-12-01T17:49:46;7.60;99.90
23385;DHT22;11865;45.394;10.978;2022-12-01T17:52:14;7.60;99.90
23385;DHT22;11865;45.394;10.978;2022-12-01T17:54:42;7.40;99.90
23385;DHT22;11865;45.394;10.978;2022-12-01T17:57:10;7.30;99.90
23385;DHT22;11865;45.394;10.978;2022-12-01T17:59:38;7.30;99.90
23385;DHT22;11865;45.394;10.978;2022-12-01T18:02:11;7.30;99.90
23385;DHT22;11865;45.394;10.978;2022-12-01T18:04:39;7.30;99.90
23385;DHT22;11865;45.394;10.978;2022-12-01T18:07:06;7.30;99.90
23385;DHT22;11865;45.394;10.978;2022-12-01T18:09:34;7.40;99.90
23385;DHT22;11865;45.394;10.978;2022-12-01T18:12:02;7.40;99.90
23385;DHT22;11865;45.394;10.978;2022-12-01T18:14:29;7.50;99.90
23385;DHT22;11865;45.394;10.978;2022-12-01T18:16:59;7.50;99.90
23385;DHT22;11865;45.394;10.978;2022-12-01T18:19:26;7.40;99.90
23385;DHT22;11865;45.394;10.978;2022-12-01T18:21:54;7.30;99.90
23385;DHT22;11865;45.394;10.978;2022-12-01T18:24:21;7.40;99.90